Saturday, February 24, 2018, 12:09 PM CST
Back to Local

KGYY, Gary Regional

Location: Gary, IN, United States Lat: 41.617
Local Time: 12:09 PM CST (18:09 GMT) Lon: -87.417
Time Zone: US/Central Elev: 590 ft

Show me the last for .
Show Coded

Time T Td Feel RH Dir Speed Gust Alt SLP Vis Weather Sky Remarks
2018-02-24 10:45 41 36 36 80 90° 7 - 30.10 - 10 OVC017 None
2018-02-24 09:45 37 34 29 86 50° 13 - 30.14 - 10 OVC090 None
2018-02-24 08:45 37 32 30 80 80° 12 - 30.17 - 10 OVC090 None
2018-02-24 07:45 36 32 28 86 50° 10 - 30.17 - 10 OVC090 None
2018-02-24 06:45 36 32 28 86 40° 10 - 30.18 - 10 OVC090 None
2018-02-24 05:45 36 32 32 86 40° 5 - 30.19 - 5 BR BKN020 None
2018-02-24 04:45 36 34 28 93 30° 10 - 30.19 - 5 BKN020 None
2018-02-24 04:15 36 33 29 89 30° 8 - 30.21 - 7 OVC021 None
2018-02-24 03:55 35 32 29 88 30° 8 - 30.22 - 7 OVC021 None
2018-02-24 03:35 35 32 29 87 30° 8 - 30.23 - 7 OVC021 None
2018-02-24 03:15 35 32 29 87 20° 7 - 30.23 - 7 SCT021 BKN110 None
2018-02-24 02:55 36 32 29 85 10° 9 - 30.23 - 10 CLR None
2018-02-24 02:35 36 32 30 86 10° 7 - 30.24 - 7 SCT018 None
2018-02-24 02:15 36 32 29 85 10° 8 - 30.24 - 10 OVC018 None
2018-02-24 01:55 36 32 30 85 10° 7 - 30.24 - 10 OVC018 None
2018-02-24 01:35 36 32 29 84 360° 9 - 30.24 - 10 OVC018 None
2018-02-24 01:15 37 32 30 83 10° 9 - 30.24 - 10 OVC018 None
2018-02-24 00:55 37 32 29 84 10° 10 - 30.23 - 7 OVC018 None
2018-02-24 00:35 37 33 30 83 360° 10 - 30.25 - 10 OVC018 None
2018-02-24 00:15 38 33 31 79 360° 12 - 30.25 - 10 OVC018 None
2018-02-23 23:55 39 33 34 79 350° 7 - 30.26 - 10 OVC018 6-hr Min Temp (12am): 38.7°F
6-hr Max Temp (12am): 39.7°F
24-hr Min Temp (12am): 38.7°F
24-hr Max Temp (12am): 46.4°F
2018-02-23 23:35 39 34 36 80 300° 5 - 30.25 - 10 OVC018 None
2018-02-23 23:15 39 34 36 81 280° 5 - 30.26 - 10 OVC018 None
2018-02-23 22:55 40 34 36 80 270° 5 - 30.26 - 10 OVC018 None
2018-02-23 22:35 39 34 37 81 240° 3 - 30.27 - 10 OVC020 None
2018-02-23 22:15 39 34 - 83 - Calm - 30.27 - 10 OVC020 None
2018-02-23 21:45 39 34 36 80 260° 5 - 30.27 - 10 OVC020 None
2018-02-23 20:45 39 34 37 80 Variable 3 - 30.26 - 10 OVC018 None
2018-02-23 19:45 39 34 34 80 260° 7 - 30.27 - 10 OVC016 None
2018-02-23 18:45 39 34 33 80 270° 9 - 30.27 - 10 OVC012 None
2018-02-23 17:45 39 34 32 80 270° 12 - 30.26 - 10 OVC012 None
2018-02-23 16:45 41 36 33 80 260° 14 - 30.24 - 10 OVC012 None
2018-02-23 15:45 41 36 32 80 250° 17 - 30.23 - 10 OVC012 None
2018-02-23 14:45 43 37 33 81 250° 15 28 30.20 - 10 OVC012 None
2018-02-23 13:45 43 37 34 81 250° 22 - 30.20 - 10 OVC012 None

Support USWX by starting your Amazon purchase here.